METAR Data
IDs: Format: Raw Decoded Include TAF

Data at: 2342 UTC 29 May 2020

METAR for:KOLZ (Oelwein Muni, IA, US)
Text:KOLZ 292335Z AUTO 35011KT 10SM BKN050 19/09 A3012 RMK A01
Temperature: 19.0°C ( 66°F)
Dewpoint: 9.0°C ( 48°F) [RH = 52%]
Pressure (altimeter):30.12 inches Hg (1020.1 mb)
Winds:from the N (350 degrees) at 13 MPH (11 knots; 5.7 m/s)
Visibility:10 or more sm (16+ km)
Ceiling:5000 feet AGL
Clouds: broken clouds at 5000 feet AGL
QC Flag:automated observation with no human augmentation